Portage Des Sioux, MO

4:27 AM CDT on July 28, 2016 (GMT -0500)
Saint Charles County Smartt | | Change Station

Elev 436 ft 38.93 °N, 90.43 °W | Updated 33 minutes ago

Clear
Clear
75 °F
Feels Like 75 °F
N
4
Wind Variable Wind from WNW

Today
High -- | Low -- °F
--% Chance of Precip.
Yesterday
High -- | Low -- °F
Precip. -- in
Pressure 29.84 in
Visibility 10.0 miles
Clouds Clear
Dew Point 71 °F
Humidity 87%
Rainfall 0.00 in
Snow Depth Not available.
5:59 AM 8:16 PM
Waning Crescent, 34% visible
METAR KSET 280854Z AUTO 29003KT 10SM CLR 24/22 A2986 RMK AO2 SLP105 T02390217 58015
Pressure 29.84 in
Visibility 10.0 miles
Clouds Clear
Dew Point 71 °F
Humidity 87%
Rainfall 0.00 in
Snow Depth Not available.
5:59 AM 8:16 PM
Waning Crescent, 34% visible
METAR KSET 280854Z AUTO 29003KT 10SM CLR 24/22 A2986 RMK AO2 SLP105 T02390217 58015

10-Day Weather Forecast

Almanac

Astronomy

Jul. 28, 2016 Rise Set
Actual Time
Civil Twilight
Nautical Twilight
Astronomical Twilight
Moon
Length of Visible Light
Length of Day
Tomorrow will be .
, % of the Moon is Illuminated

Today's Extremes

State Highs State Lows

Community

WunderPhotos

Upload Photos

1,928,070 photos uploaded!

WunderBlog® & News

Nearby

Air Quality

  Air Quality AQ Index Pollutant
Not available.

Snow Depth

Station Depth Elevation

Earthquake Activity

City Distance Mag. Time & Date
Minimum magnitude displayed is 2.5.

Coastal Water Temperatures

Place Temperature

Stations

Nearby Weather Stations

Station Location Temp. Windchill Dew Point Humidity Wind Precip. Elev Updated Type
                   

Watches & Warnings

There are currently no watches in effect.